sensor_id;sensor_type;location;lat;lon;timestamp;P1;durP1;ratioP1;P2;durP2;ratioP2
2123;SDS011;1068;52.460;13.528;2023-07-20T00:01:30;3.30;;;2.60;;
2123;SDS011;1068;52.460;13.528;2023-07-20T00:03:57;3.07;;;2.87;;
2123;SDS011;1068;52.460;13.528;2023-07-20T00:06:25;2.27;;;2.17;;
2123;SDS011;1068;52.460;13.528;2023-07-20T00:08:52;2.73;;;2.53;;
2123;SDS011;1068;52.460;13.528;2023-07-20T00:11:19;2.40;;;2.23;;
2123;SDS011;1068;52.460;13.528;2023-07-20T00:13:46;3.00;;;2.80;;
2123;SDS011;1068;52.460;13.528;2023-07-20T00:16:14;2.87;;;2.67;;
2123;SDS011;1068;52.460;13.528;2023-07-20T00:18:41;2.90;;;2.70;;
2123;SDS011;1068;52.460;13.528;2023-07-20T00:21:09;4.17;;;2.90;;
2123;SDS011;1068;52.460;13.528;2023-07-20T00:23:36;3.07;;;2.87;;
2123;SDS011;1068;52.460;13.528;2023-07-20T00:26:02;2.73;;;2.53;;
2123;SDS011;1068;52.460;13.528;2023-07-20T00:28:29;2.83;;;2.60;;
2123;SDS011;1068;52.460;13.528;2023-07-20T00:30:58;3.10;;;2.83;;
2123;SDS011;1068;52.460;13.528;2023-07-20T00:33:27;3.20;;;3.00;;
2123;SDS011;1068;52.460;13.528;2023-07-20T00:35:54;2.83;;;2.73;;
2123;SDS011;1068;52.460;13.528;2023-07-20T00:38:21;2.43;;;2.23;;
2123;SDS011;1068;52.460;13.528;2023-07-20T00:40:48;2.80;;;2.60;;
2123;SDS011;1068;52.460;13.528;2023-07-20T00:43:15;3.30;;;3.00;;
2123;SDS011;1068;52.460;13.528;2023-07-20T00:45:42;3.23;;;3.00;;
2123;SDS011;1068;52.460;13.528;2023-07-20T00:48:09;3.40;;;3.20;;
2123;SDS011;1068;52.460;13.528;2023-07-20T00:50:38;3.70;;;2.70;;
2123;SDS011;1068;52.460;13.528;2023-07-20T00:53:06;4.30;;;3.00;;
2123;SDS011;1068;52.460;13.528;2023-07-20T00:55:33;3.70;;;3.40;;
2123;SDS011;1068;52.460;13.528;2023-07-20T00:58:01;2.97;;;2.77;;
2123;SDS011;1068;52.460;13.528;2023-07-20T01:00:28;3.80;;;3.60;;
2123;SDS011;1068;52.460;13.528;2023-07-20T01:02:55;3.73;;;3.30;;
2123;SDS011;1068;52.460;13.528;2023-07-20T01:05:22;3.70;;;3.50;;
2123;SDS011;1068;52.460;13.528;2023-07-20T01:07:55;3.40;;;3.20;;
2123;SDS011;1068;52.460;13.528;2023-07-20T01:10:25;4.33;;;4.00;;
2123;SDS011;1068;52.460;13.528;2023-07-20T01:12:55;4.83;;;3.37;;
2123;SDS011;1068;52.460;13.528;2023-07-20T01:15:22;4.30;;;4.00;;
2123;SDS011;1068;52.460;13.528;2023-07-20T01:17:49;3.70;;;3.47;;
2123;SDS011;1068;52.460;13.528;2023-07-20T01:20:16;3.93;;;3.67;;
2123;SDS011;1068;52.460;13.528;2023-07-20T01:22:50;4.03;;;3.73;;
2123;SDS011;1068;52.460;13.528;2023-07-20T01:25:25;4.03;;;3.73;;
2123;SDS011;1068;52.460;13.528;2023-07-20T01:30:52;4.10;;;3.80;;
2123;SDS011;1068;52.460;13.528;2023-07-20T01:33:23;6.03;;;3.43;;
2123;SDS011;1068;52.460;13.528;2023-07-20T01:35:52;3.43;;;3.23;;
2123;SDS011;1068;52.460;13.528;2023-07-20T01:38:20;4.10;;;3.80;;
2123;SDS011;1068;52.460;13.528;2023-07-20T01:40:48;3.87;;;3.57;;
2123;SDS011;1068;52.460;13.528;2023-07-20T01:43:15;4.13;;;3.73;;
2123;SDS011;1068;52.460;13.528;2023-07-20T01:45:42;3.50;;;3.30;;
2123;SDS011;1068;52.460;13.528;2023-07-20T01:48:09;4.13;;;3.90;;
2123;SDS011;1068;52.460;13.528;2023-07-20T01:50:38;4.20;;;3.90;;
2123;SDS011;1068;52.460;13.528;2023-07-20T01:53:05;4.30;;;4.00;;
2123;SDS011;1068;52.460;13.528;2023-07-20T01:55:32;4.27;;;3.97;;
2123;SDS011;1068;52.460;13.528;2023-07-20T01:57:59;4.40;;;4.07;;
2123;SDS011;1068;52.460;13.528;2023-07-20T02:00:26;4.30;;;4.00;;
2123;SDS011;1068;52.460;13.528;2023-07-20T02:02:53;4.33;;;4.03;;
2123;SDS011;1068;52.460;13.528;2023-07-20T02:05:20;4.10;;;3.90;;
2123;SDS011;1068;52.460;13.528;2023-07-20T02:07:48;4.10;;;3.80;;
2123;SDS011;1068;52.460;13.528;2023-07-20T02:10:16;4.10;;;3.50;;
2123;SDS011;1068;52.460;13.528;2023-07-20T02:12:43;3.73;;;3.53;;
2123;SDS011;1068;52.460;13.528;2023-07-20T02:15:10;4.40;;;4.07;;
2123;SDS011;1068;52.460;13.528;2023-07-20T02:17:38;3.77;;;3.50;;
2123;SDS011;1068;52.460;13.528;2023-07-20T02:20:06;8.13;;;4.30;;
2123;SDS011;1068;52.460;13.528;2023-07-20T02:22:34;4.33;;;4.03;;
2123;SDS011;1068;52.460;13.528;2023-07-20T02:25:03;6.80;;;4.37;;
2123;SDS011;1068;52.460;13.528;2023-07-20T02:27:30;3.77;;;3.47;;
2123;SDS011;1068;52.460;13.528;2023-07-20T02:29:57;4.17;;;3.50;;
2123;SDS011;1068;52.460;13.528;2023-07-20T02:32:24;4.33;;;3.80;;
2123;SDS011;1068;52.460;13.528;2023-07-20T02:34:51;3.53;;;3.33;;
2123;SDS011;1068;52.460;13.528;2023-07-20T02:37:18;3.60;;;3.40;;
2123;SDS011;1068;52.460;13.528;2023-07-20T02:39:45;4.27;;;3.97;;
2123;SDS011;1068;52.460;13.528;2023-07-20T02:42:13;4.00;;;3.80;;
2123;SDS011;1068;52.460;13.528;2023-07-20T02:44:40;3.73;;;3.53;;
2123;SDS011;1068;52.460;13.528;2023-07-20T02:47:07;3.50;;;3.20;;
2123;SDS011;1068;52.460;13.528;2023-07-20T02:49:34;3.90;;;3.60;;
2123;SDS011;1068;52.460;13.528;2023-07-20T02:52:01;3.77;;;3.57;;
2123;SDS011;1068;52.460;13.528;2023-07-20T02:54:28;3.70;;;3.50;;
2123;SDS011;1068;52.460;13.528;2023-07-20T02:56:56;3.50;;;3.30;;
2123;SDS011;1068;52.460;13.528;2023-07-20T02:59:24;3.90;;;3.60;;
2123;SDS011;1068;52.460;13.528;2023-07-20T03:01:51;4.13;;;3.83;;
2123;SDS011;1068;52.460;13.528;2023-07-20T03:04:19;4.37;;;4.17;;
2123;SDS011;1068;52.460;13.528;2023-07-20T03:06:46;4.07;;;3.67;;
2123;SDS011;1068;52.460;13.528;2023-07-20T03:09:13;5.10;;;4.70;;
2123;SDS011;1068;52.460;13.528;2023-07-20T03:11:40;3.93;;;3.73;;
2123;SDS011;1068;52.460;13.528;2023-07-20T03:14:07;4.73;;;4.33;;
2123;SDS011;1068;52.460;13.528;2023-07-20T03:16:36;4.20;;;4.00;;
2123;SDS011;1068;52.460;13.528;2023-07-20T03:19:04;7.40;;;5.37;;
2123;SDS011;1068;52.460;13.528;2023-07-20T03:21:31;4.20;;;3.90;;
2123;SDS011;1068;52.460;13.528;2023-07-20T03:23:57;4.10;;;3.80;;
2123;SDS011;1068;52.460;13.528;2023-07-20T03:26:24;4.37;;;4.03;;
2123;SDS011;1068;52.460;13.528;2023-07-20T03:28:51;4.33;;;4.03;;
2123;SDS011;1068;52.460;13.528;2023-07-20T03:31:18;6.10;;;5.70;;
2123;SDS011;1068;52.460;13.528;2023-07-20T03:33:46;6.57;;;6.07;;
2123;SDS011;1068;52.460;13.528;2023-07-20T03:36:13;6.50;;;6.03;;
2123;SDS011;1068;52.460;13.528;2023-07-20T03:38:40;7.20;;;6.70;;
2123;SDS011;1068;52.460;13.528;2023-07-20T03:41:07;6.73;;;6.07;;
2123;SDS011;1068;52.460;13.528;2023-07-20T03:43:36;6.30;;;5.80;;
2123;SDS011;1068;52.460;13.528;2023-07-20T03:46:04;8.17;;;7.60;;
2123;SDS011;1068;52.460;13.528;2023-07-20T03:48:32;6.07;;;5.40;;
2123;SDS011;1068;52.460;13.528;2023-07-20T03:51:00;7.63;;;6.90;;
2123;SDS011;1068;52.460;13.528;2023-07-20T03:53:27;7.30;;;6.80;;
2123;SDS011;1068;52.460;13.528;2023-07-20T03:55:54;11.20;;;5.80;;
2123;SDS011;1068;52.460;13.528;2023-07-20T03:58:21;6.83;;;6.23;;
2123;SDS011;1068;52.460;13.528;2023-07-20T04:00:48;7.23;;;6.63;;
2123;SDS011;1068;52.460;13.528;2023-07-20T04:03:16;7.87;;;7.27;;
2123;SDS011;1068;52.460;13.528;2023-07-20T04:05:43;7.63;;;7.03;;
2123;SDS011;1068;52.460;13.528;2023-07-20T04:08:11;7.20;;;6.80;;
2123;SDS011;1068;52.460;13.528;2023-07-20T04:10:38;8.97;;;8.07;;
2123;SDS011;1068;52.460;13.528;2023-07-20T04:13:05;8.47;;;7.63;;
2123;SDS011;1068;52.460;13.528;2023-07-20T04:15:33;6.93;;;6.33;;
2123;SDS011;1068;52.460;13.528;2023-07-20T04:18:00;7.30;;;6.80;;
2123;SDS011;1068;52.460;13.528;2023-07-20T04:20:26;8.90;;;7.03;;
2123;SDS011;1068;52.460;13.528;2023-07-20T04:22:53;7.13;;;6.43;;
2123;SDS011;1068;52.460;13.528;2023-07-20T04:25:22;6.90;;;6.50;;
2123;SDS011;1068;52.460;13.528;2023-07-20T04:27:49;7.13;;;6.73;;
2123;SDS011;1068;52.460;13.528;2023-07-20T04:30:17;9.17;;;8.37;;
2123;SDS011;1068;52.460;13.528;2023-07-20T04:32:45;7.07;;;6.67;;
2123;SDS011;1068;52.460;13.528;2023-07-20T04:35:16;8.60;;;7.80;;
2123;SDS011;1068;52.460;13.528;2023-07-20T04:37:44;7.40;;;6.90;;
2123;SDS011;1068;52.460;13.528;2023-07-20T04:40:11;6.80;;;6.30;;
2123;SDS011;1068;52.460;13.528;2023-07-20T04:42:40;8.13;;;7.53;;
2123;SDS011;1068;52.460;13.528;2023-07-20T04:45:07;8.67;;;7.80;;
2123;SDS011;1068;52.460;13.528;2023-07-20T04:47:34;11.77;;;8.13;;
2123;SDS011;1068;52.460;13.528;2023-07-20T04:50:01;7.33;;;6.63;;
2123;SDS011;1068;52.460;13.528;2023-07-20T04:52:28;7.60;;;7.00;;
2123;SDS011;1068;52.460;13.528;2023-07-20T04:54:55;8.43;;;7.77;;
2123;SDS011;1068;52.460;13.528;2023-07-20T04:57:23;8.60;;;8.00;;
2123;SDS011;1068;52.460;13.528;2023-07-20T04:59:52;7.50;;;6.90;;
2123;SDS011;1068;52.460;13.528;2023-07-20T05:02:19;8.63;;;7.93;;
2123;SDS011;1068;52.460;13.528;2023-07-20T05:04:46;9.00;;;8.20;;
2123;SDS011;1068;52.460;13.528;2023-07-20T05:07:13;7.70;;;7.20;;
2123;SDS011;1068;52.460;13.528;2023-07-20T05:09:40;8.00;;;7.40;;
2123;SDS011;1068;52.460;13.528;2023-07-20T05:12:07;9.80;;;8.90;;
2123;SDS011;1068;52.460;13.528;2023-07-20T05:14:34;10.00;;;8.60;;
2123;SDS011;1068;52.460;13.528;2023-07-20T05:17:02;9.13;;;8.23;;
2123;SDS011;1068;52.460;13.528;2023-07-20T05:19:29;10.50;;;8.67;;
2123;SDS011;1068;52.460;13.528;2023-07-20T05:21:56;9.07;;;8.27;;
2123;SDS011;1068;52.460;13.528;2023-07-20T05:24:23;8.03;;;7.47;;
2123;SDS011;1068;52.460;13.528;2023-07-20T05:26:50;8.80;;;8.00;;
2123;SDS011;1068;52.460;13.528;2023-07-20T05:29:17;7.67;;;7.13;;
2123;SDS011;1068;52.460;13.528;2023-07-20T05:31:44;8.07;;;7.47;;
2123;SDS011;1068;52.460;13.528;2023-07-20T05:34:12;7.80;;;7.20;;
2123;SDS011;1068;52.460;13.528;2023-07-20T05:36:39;7.50;;;7.00;;
2123;SDS011;1068;52.460;13.528;2023-07-20T05:39:06;9.43;;;8.63;;
2123;SDS011;1068;52.460;13.528;2023-07-20T05:41:33;8.03;;;7.43;;
2123;SDS011;1068;52.460;13.528;2023-07-20T05:44:00;8.23;;;7.53;;
2123;SDS011;1068;52.460;13.528;2023-07-20T05:46:27;7.93;;;7.33;;
2123;SDS011;1068;52.460;13.528;2023-07-20T05:48:54;7.97;;;7.47;;
2123;SDS011;1068;52.460;13.528;2023-07-20T05:51:22;7.13;;;6.53;;
2123;SDS011;1068;52.460;13.528;2023-07-20T05:53:49;7.60;;;6.70;;
2123;SDS011;1068;52.460;13.528;2023-07-20T05:56:16;6.90;;;6.30;;
2123;SDS011;1068;52.460;13.528;2023-07-20T05:58:43;7.63;;;6.47;;
2123;SDS011;1068;52.460;13.528;2023-07-20T06:01:10;7.03;;;6.43;;
2123;SDS011;1068;52.460;13.528;2023-07-20T06:03:37;7.27;;;6.77;;
2123;SDS011;1068;52.460;13.528;2023-07-20T06:06:04;6.10;;;5.63;;
2123;SDS011;1068;52.460;13.528;2023-07-20T06:08:50;7.10;;;6.20;;
2123;SDS011;1068;52.460;13.528;2023-07-20T06:11:18;5.30;;;5.00;;
2123;SDS011;1068;52.460;13.528;2023-07-20T06:13:45;5.90;;;5.50;;
2123;SDS011;1068;52.460;13.528;2023-07-20T06:16:12;4.90;;;4.60;;
2123;SDS011;1068;52.460;13.528;2023-07-20T06:18:39;4.80;;;4.50;;
2123;SDS011;1068;52.460;13.528;2023-07-20T06:21:06;4.97;;;4.67;;
2123;SDS011;1068;52.460;13.528;2023-07-20T06:23:33;5.20;;;4.90;;
2123;SDS011;1068;52.460;13.528;2023-07-20T06:26:01;5.30;;;5.00;;
2123;SDS011;1068;52.460;13.528;2023-07-20T06:28:28;4.70;;;4.40;;
2123;SDS011;1068;52.460;13.528;2023-07-20T06:30:58;5.17;;;4.67;;
2123;SDS011;1068;52.460;13.528;2023-07-20T06:33:25;4.03;;;3.70;;
2123;SDS011;1068;52.460;13.528;2023-07-20T06:35:53;4.00;;;3.60;;
2123;SDS011;1068;52.460;13.528;2023-07-20T06:38:21;4.60;;;4.30;;
2123;SDS011;1068;52.460;13.528;2023-07-20T06:40:48;3.53;;;3.33;;
2123;SDS011;1068;52.460;13.528;2023-07-20T06:43:17;3.20;;;3.00;;
2123;SDS011;1068;52.460;13.528;2023-07-20T06:45:44;3.60;;;3.40;;
2123;SDS011;1068;52.460;13.528;2023-07-20T06:48:11;3.23;;;3.03;;
2123;SDS011;1068;52.460;13.528;2023-07-20T06:50:38;3.00;;;2.80;;
2123;SDS011;1068;52.460;13.528;2023-07-20T06:53:05;2.87;;;2.60;;
2123;SDS011;1068;52.460;13.528;2023-07-20T06:55:32;2.77;;;2.60;;
2123;SDS011;1068;52.460;13.528;2023-07-20T06:57:59;3.10;;;2.90;;
2123;SDS011;1068;52.460;13.528;2023-07-20T07:00:27;3.13;;;2.83;;
2123;SDS011;1068;52.460;13.528;2023-07-20T07:02:54;3.37;;;3.07;;
2123;SDS011;1068;52.460;13.528;2023-07-20T07:05:21;5.83;;;3.17;;
2123;SDS011;1068;52.460;13.528;2023-07-20T07:07:48;5.03;;;4.47;;
2123;SDS011;1068;52.460;13.528;2023-07-20T07:10:15;3.93;;;3.73;;
2123;SDS011;1068;52.460;13.528;2023-07-20T07:12:43;5.00;;;4.70;;
2123;SDS011;1068;52.460;13.528;2023-07-20T07:15:10;5.17;;;4.87;;
2123;SDS011;1068;52.460;13.528;2023-07-20T07:17:38;4.80;;;4.40;;
2123;SDS011;1068;52.460;13.528;2023-07-20T07:20:07;4.50;;;4.30;;
2123;SDS011;1068;52.460;13.528;2023-07-20T07:22:34;4.23;;;3.93;;
2123;SDS011;1068;52.460;13.528;2023-07-20T07:25:01;3.40;;;3.20;;
2123;SDS011;1068;52.460;13.528;2023-07-20T07:27:28;3.97;;;3.40;;
2123;SDS011;1068;52.460;13.528;2023-07-20T07:29:55;3.30;;;3.20;;
2123;SDS011;1068;52.460;13.528;2023-07-20T07:32:22;2.40;;;2.30;;
2123;SDS011;1068;52.460;13.528;2023-07-20T07:34:50;2.93;;;2.73;;
2123;SDS011;1068;52.460;13.528;2023-07-20T07:37:17;3.07;;;2.80;;
2123;SDS011;1068;52.460;13.528;2023-07-20T07:39:44;2.33;;;2.23;;
2123;SDS011;1068;52.460;13.528;2023-07-20T07:42:11;5.13;;;2.73;;
2123;SDS011;1068;52.460;13.528;2023-07-20T07:44:39;2.20;;;2.00;;
2123;SDS011;1068;52.460;13.528;2023-07-20T07:47:06;6.13;;;2.00;;
2123;SDS011;1068;52.460;13.528;2023-07-20T07:49:33;1.93;;;1.83;;
2123;SDS011;1068;52.460;13.528;2023-07-20T07:52:01;1.80;;;1.70;;
2123;SDS011;1068;52.460;13.528;2023-07-20T07:54:28;2.60;;;2.10;;
2123;SDS011;1068;52.460;13.528;2023-07-20T07:56:55;1.77;;;1.67;;
2123;SDS011;1068;52.460;13.528;2023-07-20T07:59:22;1.87;;;1.40;;
2123;SDS011;1068;52.460;13.528;2023-07-20T08:01:49;4.77;;;2.27;;
2123;SDS011;1068;52.460;13.528;2023-07-20T08:04:16;4.37;;;2.00;;
2123;SDS011;1068;52.460;13.528;2023-07-20T08:06:43;2.57;;;1.50;;
2123;SDS011;1068;52.460;13.528;2023-07-20T08:09:11;2.73;;;1.70;;
2123;SDS011;1068;52.460;13.528;2023-07-20T08:11:38;1.40;;;1.30;;
2123;SDS011;1068;52.460;13.528;2023-07-20T08:14:05;1.43;;;1.33;;
2123;SDS011;1068;52.460;13.528;2023-07-20T08:16:32;1.77;;;1.50;;
2123;SDS011;1068;52.460;13.528;2023-07-20T08:18:59;2.20;;;2.00;;
2123;SDS011;1068;52.460;13.528;2023-07-20T08:21:27;3.53;;;1.43;;
2123;SDS011;1068;52.460;13.528;2023-07-20T08:23:54;1.87;;;1.30;;
2123;SDS011;1068;52.460;13.528;2023-07-20T08:26:22;1.83;;;1.30;;
2123;SDS011;1068;52.460;13.528;2023-07-20T08:28:49;1.57;;;1.47;;
2123;SDS011;1068;52.460;13.528;2023-07-20T08:31:17;2.07;;;1.70;;
2123;SDS011;1068;52.460;13.528;2023-07-20T08:33:44;1.70;;;1.60;;
2123;SDS011;1068;52.460;13.528;2023-07-20T08:36:11;1.40;;;1.30;;
2123;SDS011;1068;52.460;13.528;2023-07-20T08:38:38;1.50;;;1.20;;
2123;SDS011;1068;52.460;13.528;2023-07-20T08:41:05;2.13;;;1.20;;
2123;SDS011;1068;52.460;13.528;2023-07-20T08:43:34;1.60;;;1.00;;
2123;SDS011;1068;52.460;13.528;2023-07-20T08:46:02;1.33;;;1.00;;
2123;SDS011;1068;52.460;13.528;2023-07-20T08:48:30;1.20;;;0.77;;
2123;SDS011;1068;52.460;13.528;2023-07-20T08:50:57;1.87;;;0.97;;
2123;SDS011;1068;52.460;13.528;2023-07-20T08:53:25;1.00;;;0.90;;
2123;SDS011;1068;52.460;13.528;2023-07-20T08:55:52;0.80;;;0.80;;
2123;SDS011;1068;52.460;13.528;2023-07-20T08:58:20;1.10;;;1.00;;
2123;SDS011;1068;52.460;13.528;2023-07-20T09:00:48;1.20;;;0.83;;
2123;SDS011;1068;52.460;13.528;2023-07-20T09:03:17;1.70;;;0.93;;
2123;SDS011;1068;52.460;13.528;2023-07-20T09:05:44;1.10;;;1.00;;
2123;SDS011;1068;52.460;13.528;2023-07-20T09:08:11;1.60;;;1.30;;
2123;SDS011;1068;52.460;13.528;2023-07-20T09:10:38;0.90;;;0.90;;
2123;SDS011;1068;52.460;13.528;2023-07-20T09:13:05;1.00;;;0.90;;
2123;SDS011;1068;52.460;13.528;2023-07-20T09:15:32;0.90;;;0.90;;
2123;SDS011;1068;52.460;13.528;2023-07-20T09:18:02;2.83;;;1.00;;
2123;SDS011;1068;52.460;13.528;2023-07-20T09:20:30;0.90;;;0.90;;
2123;SDS011;1068;52.460;13.528;2023-07-20T09:22:58;1.13;;;0.90;;
2123;SDS011;1068;52.460;13.528;2023-07-20T09:25:25;0.70;;;0.63;;
2123;SDS011;1068;52.460;13.528;2023-07-20T09:27:54;1.70;;;0.90;;
2123;SDS011;1068;52.460;13.528;2023-07-20T09:30:21;0.97;;;0.83;;
2123;SDS011;1068;52.460;13.528;2023-07-20T09:32:51;6.00;;;0.90;;
2123;SDS011;1068;52.460;13.528;2023-07-20T09:35:20;0.80;;;0.73;;
2123;SDS011;1068;52.460;13.528;2023-07-20T09:37:49;0.60;;;0.60;;
2123;SDS011;1068;52.460;13.528;2023-07-20T09:40:17;0.80;;;0.60;;
2123;SDS011;1068;52.460;13.528;2023-07-20T09:42:44;0.80;;;0.73;;
2123;SDS011;1068;52.460;13.528;2023-07-20T09:45:12;1.00;;;0.90;;
2123;SDS011;1068;52.460;13.528;2023-07-20T09:47:39;0.80;;;0.60;;
2123;SDS011;1068;52.460;13.528;2023-07-20T09:50:06;1.57;;;1.00;;
2123;SDS011;1068;52.460;13.528;2023-07-20T09:52:37;1.33;;;0.90;;
2123;SDS011;1068;52.460;13.528;2023-07-20T09:55:05;6.27;;;0.80;;
2123;SDS011;1068;52.460;13.528;2023-07-20T09:57:33;0.70;;;0.70;;
2123;SDS011;1068;52.460;13.528;2023-07-20T10:00:00;0.70;;;0.70;;
2123;SDS011;1068;52.460;13.528;2023-07-20T10:02:30;1.20;;;0.70;;
2123;SDS011;1068;52.460;13.528;2023-07-20T10:05:00;0.80;;;0.60;;
2123;SDS011;1068;52.460;13.528;2023-07-20T10:07:28;0.70;;;0.70;;
2123;SDS011;1068;52.460;13.528;2023-07-20T10:09:58;1.83;;;0.60;;
2123;SDS011;1068;52.460;13.528;2023-07-20T10:12:26;0.90;;;0.70;;
2123;SDS011;1068;52.460;13.528;2023-07-20T10:14:55;0.80;;;0.80;;
2123;SDS011;1068;52.460;13.528;2023-07-20T10:17:26;2.50;;;0.60;;
2123;SDS011;1068;52.460;13.528;2023-07-20T10:19:54;1.33;;;0.83;;
2123;SDS011;1068;52.460;13.528;2023-07-20T10:22:26;1.37;;;0.80;;
2123;SDS011;1068;52.460;13.528;2023-07-20T10:24:54;1.33;;;0.70;;
2123;SDS011;1068;52.460;13.528;2023-07-20T10:27:25;1.00;;;0.70;;
2123;SDS011;1068;52.460;13.528;2023-07-20T10:29:52;0.80;;;0.80;;
2123;SDS011;1068;52.460;13.528;2023-07-20T10:32:20;0.80;;;0.70;;
2123;SDS011;1068;52.460;13.528;2023-07-20T10:34:50;3.53;;;1.20;;
2123;SDS011;1068;52.460;13.528;2023-07-20T10:40:00;1.30;;;0.80;;
2123;SDS011;1068;52.460;13.528;2023-07-20T10:42:48;2.30;;;0.90;;
2123;SDS011;1068;52.460;13.528;2023-07-20T10:45:15;1.10;;;0.70;;
2123;SDS011;1068;52.460;13.528;2023-07-20T10:47:45;0.80;;;0.80;;
2123;SDS011;1068;52.460;13.528;2023-07-20T10:50:12;0.80;;;0.80;;
2123;SDS011;1068;52.460;13.528;2023-07-20T10:52:39;0.80;;;0.70;;
2123;SDS011;1068;52.460;13.528;2023-07-20T10:55:14;0.90;;;0.80;;
2123;SDS011;1068;52.460;13.528;2023-07-20T10:57:41;0.90;;;0.80;;
2123;SDS011;1068;52.460;13.528;2023-07-20T11:00:11;1.57;;;0.90;;
2123;SDS011;1068;52.460;13.528;2023-07-20T11:02:42;0.90;;;0.73;;
2123;SDS011;1068;52.460;13.528;2023-07-20T11:07:51;1.70;;;0.87;;
2123;SDS011;1068;52.460;13.528;2023-07-20T11:10:18;0.60;;;0.60;;
2123;SDS011;1068;52.460;13.528;2023-07-20T11:15:29;1.40;;;1.13;;
2123;SDS011;1068;52.460;13.528;2023-07-20T11:18:11;1.27;;;1.00;;
2123;SDS011;1068;52.460;13.528;2023-07-20T11:20:38;2.40;;;1.00;;
2123;SDS011;1068;52.460;13.528;2023-07-20T11:23:05;1.17;;;1.07;;
2123;SDS011;1068;52.460;13.528;2023-07-20T11:25:36;1.10;;;1.00;;
2123;SDS011;1068;52.460;13.528;2023-07-20T11:28:06;1.00;;;0.90;;
2123;SDS011;1068;52.460;13.528;2023-07-20T11:30:35;2.10;;;0.90;;
2123;SDS011;1068;52.460;13.528;2023-07-20T11:33:01;1.33;;;0.90;;
2123;SDS011;1068;52.460;13.528;2023-07-20T11:35:28;0.93;;;0.80;;
2123;SDS011;1068;52.460;13.528;2023-07-20T11:37:55;1.20;;;0.90;;
2123;SDS011;1068;52.460;13.528;2023-07-20T11:40:22;1.00;;;0.80;;
2123;SDS011;1068;52.460;13.528;2023-07-20T11:42:50;0.80;;;0.80;;
2123;SDS011;1068;52.460;13.528;2023-07-20T11:45:17;1.20;;;0.80;;
2123;SDS011;1068;52.460;13.528;2023-07-20T11:47:45;1.47;;;0.80;;
2123;SDS011;1068;52.460;13.528;2023-07-20T11:50:12;0.80;;;0.70;;
2123;SDS011;1068;52.460;13.528;2023-07-20T11:52:39;0.97;;;0.87;;
2123;SDS011;1068;52.460;13.528;2023-07-20T11:55:07;1.00;;;0.90;;
2123;SDS011;1068;52.460;13.528;2023-07-20T11:57:34;1.20;;;0.80;;
2123;SDS011;1068;52.460;13.528;2023-07-20T12:00:03;0.70;;;0.70;;
2123;SDS011;1068;52.460;13.528;2023-07-20T12:02:34;0.90;;;0.80;;
2123;SDS011;1068;52.460;13.528;2023-07-20T12:05:02;1.30;;;0.70;;
2123;SDS011;1068;52.460;13.528;2023-07-20T12:07:34;0.90;;;0.77;;
2123;SDS011;1068;52.460;13.528;2023-07-20T12:10:05;0.80;;;0.80;;
2123;SDS011;1068;52.460;13.528;2023-07-20T12:12:32;0.97;;;0.80;;
2123;SDS011;1068;52.460;13.528;2023-07-20T12:15:15;0.80;;;0.80;;
2123;SDS011;1068;52.460;13.528;2023-07-20T12:17:43;0.80;;;0.80;;
2123;SDS011;1068;52.460;13.528;2023-07-20T12:20:11;0.77;;;0.67;;
2123;SDS011;1068;52.460;13.528;2023-07-20T12:22:39;1.33;;;0.80;;
2123;SDS011;1068;52.460;13.528;2023-07-20T12:25:06;1.20;;;0.90;;
2123;SDS011;1068;52.460;13.528;2023-07-20T12:27:35;2.10;;;0.90;;
2123;SDS011;1068;52.460;13.528;2023-07-20T12:30:04;1.73;;;0.77;;
2123;SDS011;1068;52.460;13.528;2023-07-20T12:32:31;1.87;;;0.70;;
2123;SDS011;1068;52.460;13.528;2023-07-20T12:34:58;2.80;;;0.70;;
2123;SDS011;1068;52.460;13.528;2023-07-20T12:37:26;1.07;;;0.70;;
2123;SDS011;1068;52.460;13.528;2023-07-20T12:39:53;2.67;;;0.70;;
2123;SDS011;1068;52.460;13.528;2023-07-20T12:42:20;1.00;;;0.70;;
2123;SDS011;1068;52.460;13.528;2023-07-20T12:44:48;7.07;;;6.37;;
2123;SDS011;1068;52.460;13.528;2023-07-20T12:47:15;1.13;;;0.80;;
2123;SDS011;1068;52.460;13.528;2023-07-20T12:49:42;1.00;;;0.77;;
2123;SDS011;1068;52.460;13.528;2023-07-20T12:52:10;1.27;;;0.70;;
2123;SDS011;1068;52.460;13.528;2023-07-20T12:54:38;1.80;;;0.60;;
2123;SDS011;1068;52.460;13.528;2023-07-20T12:57:06;2.87;;;0.77;;
2123;SDS011;1068;52.460;13.528;2023-07-20T12:59:33;1.10;;;0.70;;
2123;SDS011;1068;52.460;13.528;2023-07-20T13:02:00;1.30;;;0.70;;
2123;SDS011;1068;52.460;13.528;2023-07-20T13:04:27;1.53;;;0.60;;
2123;SDS011;1068;52.460;13.528;2023-07-20T13:06:54;0.70;;;0.60;;
2123;SDS011;1068;52.460;13.528;2023-07-20T13:09:23;2.50;;;0.90;;
2123;SDS011;1068;52.460;13.528;2023-07-20T13:11:51;0.80;;;0.70;;
2123;SDS011;1068;52.460;13.528;2023-07-20T13:14:18;1.00;;;0.60;;
2123;SDS011;1068;52.460;13.528;2023-07-20T13:16:45;1.13;;;0.70;;
2123;SDS011;1068;52.460;13.528;2023-07-20T13:19:12;1.00;;;0.90;;
2123;SDS011;1068;52.460;13.528;2023-07-20T13:21:39;1.93;;;0.90;;
2123;SDS011;1068;52.460;13.528;2023-07-20T13:24:06;1.43;;;0.87;;
2123;SDS011;1068;52.460;13.528;2023-07-20T13:26:33;2.30;;;1.20;;
2123;SDS011;1068;52.460;13.528;2023-07-20T13:29:01;1.00;;;0.67;;
2123;SDS011;1068;52.460;13.528;2023-07-20T13:31:28;1.83;;;0.70;;
2123;SDS011;1068;52.460;13.528;2023-07-20T13:33:55;7.07;;;6.23;;
2123;SDS011;1068;52.460;13.528;2023-07-20T13:36:23;2.30;;;0.80;;
2123;SDS011;1068;52.460;13.528;2023-07-20T13:38:51;0.67;;;0.60;;
2123;SDS011;1068;52.460;13.528;2023-07-20T13:41:18;1.30;;;0.60;;
2123;SDS011;1068;52.460;13.528;2023-07-20T13:43:45;0.80;;;0.70;;
2123;SDS011;1068;52.460;13.528;2023-07-20T13:46:13;0.70;;;0.70;;
2123;SDS011;1068;52.460;13.528;2023-07-20T13:48:41;1.00;;;0.70;;
2123;SDS011;1068;52.460;13.528;2023-07-20T13:51:08;1.00;;;0.63;;
2123;SDS011;1068;52.460;13.528;2023-07-20T13:53:35;0.90;;;0.60;;
2123;SDS011;1068;52.460;13.528;2023-07-20T13:56:02;1.63;;;0.70;;
2123;SDS011;1068;52.460;13.528;2023-07-20T13:58:30;3.77;;;0.90;;
2123;SDS011;1068;52.460;13.528;2023-07-20T14:00:56;0.70;;;0.60;;
2123;SDS011;1068;52.460;13.528;2023-07-20T14:03:25;2.40;;;0.70;;
2123;SDS011;1068;52.460;13.528;2023-07-20T14:05:52;1.23;;;0.67;;
2123;SDS011;1068;52.460;13.528;2023-07-20T14:08:19;0.80;;;0.70;;
2123;SDS011;1068;52.460;13.528;2023-07-20T14:10:46;2.47;;;1.00;;
2123;SDS011;1068;52.460;13.528;2023-07-20T14:13:12;0.97;;;0.60;;
2123;SDS011;1068;52.460;13.528;2023-07-20T14:15:39;0.87;;;0.80;;
2123;SDS011;1068;52.460;13.528;2023-07-20T14:18:06;1.10;;;0.90;;
2123;SDS011;1068;52.460;13.528;2023-07-20T14:20:35;1.30;;;0.80;;
2123;SDS011;1068;52.460;13.528;2023-07-20T14:23:02;1.53;;;1.10;;
2123;SDS011;1068;52.460;13.528;2023-07-20T14:25:29;0.87;;;0.77;;
2123;SDS011;1068;52.460;13.528;2023-07-20T14:27:57;0.80;;;0.77;;
2123;SDS011;1068;52.460;13.528;2023-07-20T14:30:24;0.90;;;0.60;;
2123;SDS011;1068;52.460;13.528;2023-07-20T14:32:51;0.80;;;0.80;;
2123;SDS011;1068;52.460;13.528;2023-07-20T14:35:18;2.20;;;0.80;;
2123;SDS011;1068;52.460;13.528;2023-07-20T14:37:48;1.07;;;1.00;;
2123;SDS011;1068;52.460;13.528;2023-07-20T14:40:15;1.00;;;0.90;;
2123;SDS011;1068;52.460;13.528;2023-07-20T14:42:42;1.00;;;0.80;;
2123;SDS011;1068;52.460;13.528;2023-07-20T14:45:09;0.73;;;0.70;;
2123;SDS011;1068;52.460;13.528;2023-07-20T14:47:36;1.90;;;1.37;;
2123;SDS011;1068;52.460;13.528;2023-07-20T14:50:03;1.20;;;1.10;;
2123;SDS011;1068;52.460;13.528;2023-07-20T14:52:31;1.77;;;0.70;;
2123;SDS011;1068;52.460;13.528;2023-07-20T14:54:59;0.97;;;0.70;;
2123;SDS011;1068;52.460;13.528;2023-07-20T14:57:26;0.70;;;0.60;;
2123;SDS011;1068;52.460;13.528;2023-07-20T14:59:53;1.00;;;0.80;;
2123;SDS011;1068;52.460;13.528;2023-07-20T15:02:20;0.80;;;0.60;;
2123;SDS011;1068;52.460;13.528;2023-07-20T15:04:47;0.70;;;0.67;;
2123;SDS011;1068;52.460;13.528;2023-07-20T15:07:14;11.00;;;1.00;;
2123;SDS011;1068;52.460;13.528;2023-07-20T15:09:41;1.30;;;0.70;;
2123;SDS011;1068;52.460;13.528;2023-07-20T15:12:09;1.93;;;0.70;;
2123;SDS011;1068;52.460;13.528;2023-07-20T15:14:39;1.00;;;0.80;;